ENEV/EVE METAR and TAF weather

Enter ICAO airport designator
Station Type Date Time Source
ENEV METAR 2018/09/21 22:50 UTC NOAA

ENEV 212250Z AUTO 02004KT 330V070 9999 FEW130/// 07/05 Q0984 RMK WIND 1400FT 05011KT


Station Type Date Time Source
ENEV Decoded METAR 2018/09/21 22:50 UTC NOAA

Evenes, Norway (ENEV) 68-31N 016-41E 26M
Sep 21, 2018 - 06:50 PM EDT / 2018.09.21 2250 UTC
Wind: from the NNE (020 degrees) at 5 MPH (4 KT) (direction variable):0
Visibility: greater than 7 mile(s):0
Sky conditions: mostly clear
Temperature: 44 F (7 C)
Dew Point: 41 F (5 C)
Relative Humidity: 87%
Pressure (altimeter): 29.06 in. Hg (0984 hPa)
ob: ENEV 212250Z AUTO 02004KT 330V070 9999 FEW130/// 07/05 Q0984 RMK WIND 1400FT 05011KT
cycle: 23

Station Type Date Time Source
ENEV TAF 2010/02/05 07:50 UTC NOAA

METAR ENEV 050750Z 14007KT 9999 FEW040 SCT055 M04/M09 Q1019


Example: see airport list